Pagrindinis puslapis
METAR-TAF:

METAR-TAF

Oro uostai :

Karup, Danija

platuma: 56-18N, ilguma: 009-07E, Aukštis: 52 m

Dabartinis oras

Ataskaita buvo paskelbta 23 minutes, ne 06:20 UTC
Vėjas 7 kt iš Vakarų
Temperatūra 4°C
Drėgmė 81%
Slėgis 1026 hPa
Matomumas 10 km arba daugiau

METAR: EKKA 100620Z AUTO 26007KT 9999 FEW180/// SCT200/// 04/01 Q1026

Laikas: 08:43 (06:43 UTC)

Prognozė

Ataskaita buvo paskelbta 1 valandą ir 42 minutes, ne 05:01 UTC
Prognozė galioja nuo 10 metu 06 UTC su 11 metu 06 UTC
Vėjas 8 kt iš Vakarų/Šiaurės Vakarų
Matomumas 10 km arba daugiau
Išsisklaidę debesys ne aukštis 20000 ft
Laikinai
nuo 10 metu 10 UTC su 10 metu 15 UTC
Vėjas 12 kt iš Šiaurės Vakarų su gūsio iki 22 kt
Tapsmas
nuo 10 metu 21 UTC su 10 metu 24 UTC
Vėjas 3 kt nuo kintamojo kryptimis

TAF: EKKA 100501Z 1006/1106 29008KT 9999 SCT200 TEMPO 1010/1015 31012G22KT BECMG 1021/1024 VRB03KT

Orai ataskaitas ir orų prognozės (METAR, TAF).

turimą stotys yra geltonos ir raudonos taškus žemėlapyje.

Perkelti pele per norėdami pamatyti stoties vardą.

Tada spustelėkite, norėdami matyti oro stebėjimo ir prognozės.

Norėdami pakeisti žemėlapį: spustelėkite ant žalios mygtukų su juodo kryžiaus žemyn,; žalią mygtuką su brūkšneliu, jei norite nutolinti; arba žalių rodyklių gretimoms žemėlapius.


METAR-TAF: